Time;durP1;ratioP1;P1;durP2;ratioP2;P2;SDS_P1;SDS_P2;PMS_P1;PMS_P2;Temp;Humidity;BMP_temperature;BMP_pressure;BME280_temperature;BME280_humidity;BME280_pressure;Samples;Min_cycle;Max_cycle;Signal;HPM_P1;HPM_P2
2022/09/21 00:00:24;;;;;;;;;;;;;;;11.24;100.00;102578.78;5022922;28;19924;-43
2022/09/21 00:02:50;;;;;;;;;;;;;;;11.17;100.00;102578.41;5022448;28;20389;-42
2022/09/21 00:05:16;;;;;;;;;;;;;;;11.12;100.00;102582.44;5020946;28;19947;-43
2022/09/21 00:07:41;;;;;;;;;;;;;;;11.10;100.00;102579.00;5021894;28;20420;-42
2022/09/21 00:10:07;;;;;;;;;;;;;;;11.09;100.00;102571.97;5020114;28;19921;-41
2022/09/21 00:12:32;;;;;;;;;;;;;;;11.08;100.00;102572.94;5023383;28;20020;-41
2022/09/21 00:14:57;;;;;;;;;;;;;;;11.02;100.00;102572.44;5020201;28;20544;-43
2022/09/21 00:17:22;;;;;;;;;;;;;;;10.99;100.00;102570.00;5021895;28;19929;-42
2022/09/21 00:19:47;;;;;;;;;;;;;;;10.96;100.00;102575.63;5020745;28;19951;-44
2022/09/21 00:22:13;;;;;;;;;;;;;;;10.94;100.00;102571.34;5018266;28;19921;-42
2022/09/21 00:24:38;;;;;;;;;;;;;;;10.93;100.00;102566.97;5021931;28;19939;-40
2022/09/21 00:27:03;;;;;;;;;;;;;;;10.94;100.00;102574.03;5022251;28;19917;-42
2022/09/21 00:29:28;;;;;;;;;;;;;;;10.94;100.00;102566.00;5021822;28;19929;-40
2022/09/21 00:31:54;;;;;;;;;;;;;;;10.93;100.00;102567.84;5021764;28;19917;-44
2022/09/21 00:34:19;;;;;;;;;;;;;;;10.91;100.00;102567.13;5020782;28;19921;-45
2022/09/21 00:36:45;;;;;;;;;;;;;;;10.91;100.00;102566.25;5020680;28;20183;-41
2022/09/21 00:39:10;;;;;;;;;;;;;;;10.90;100.00;102576.09;5020827;28;19921;-41
2022/09/21 00:41:35;;;;;;;;;;;;;;;10.88;100.00;102574.50;5021976;28;20291;-40
2022/09/21 00:44:19;;;;;;;;;;;;;;;10.85;100.00;102572.09;5021637;28;19920;-40
2022/09/21 00:46:45;;;;;;;;;;;;;;;10.82;100.00;102566.00;5022084;28;19913;-42
2022/09/21 00:49:11;;;;;;;;;;;;;;;10.77;100.00;102570.00;5020225;28;19932;-42
2022/09/21 00:51:36;;;;;;;;;;;;;;;10.72;100.00;102573.03;5020717;28;20264;-42
2022/09/21 00:54:07;;;;;;;;;;;;;;;10.67;100.00;102572.53;5021231;28;19982;-40
2022/09/21 00:56:33;;;;;;;;;;;;;;;10.66;100.00;102578.00;5021923;28;20418;-40
2022/09/21 00:58:58;;;;;;;;;;;;;;;10.64;100.00;102584.34;5021477;28;19943;-42
2022/09/21 01:01:24;;;;;;;;;;;;;;;10.61;100.00;102581.88;5021453;28;19913;-41
2022/09/21 01:03:50;;;;;;;;;;;;;;;10.61;100.00;102581.06;5036336;28;19929;-41
2022/09/21 01:06:17;;;;;;;;;;;;;;;10.61;100.00;102575.72;5019126;28;19917;-42
2022/09/21 01:08:43;;;;;;;;;;;;;;;10.62;100.00;102577.38;5021381;28;19916;-42
2022/09/21 01:11:08;;;;;;;;;;;;;;;10.61;100.00;102583.72;5017568;28;20426;-40
2022/09/21 01:13:45;;;;;;;;;;;;;;;10.62;100.00;102577.38;5020923;28;20059;-42
2022/09/21 01:16:29;;;;;;;;;;;;;;;10.60;100.00;102576.66;5020766;28;20267;-40
2022/09/21 01:19:10;;;;;;;;;;;;;;;10.59;100.00;102574.94;5020545;28;19994;-43
2022/09/21 01:21:45;;;;;;;;;;;;;;;10.57;100.00;102574.22;5019880;28;19913;-43
2022/09/21 01:24:29;;;;;;;;;;;;;;;10.54;100.00;102574.44;5020439;28;20368;-43
2022/09/21 01:27:13;;;;;;;;;;;;;;;10.52;100.00;102579.94;5021221;28;19966;-43
2022/09/21 01:29:43;;;;;;;;;;;;;;;10.52;100.00;102584.41;5014898;28;19974;-42
2022/09/21 01:32:15;;;;;;;;;;;;;;;10.49;100.00;102587.31;5029242;28;19923;-43
2022/09/21 01:34:50;;;;;;;;;;;;;;;10.33;100.00;102577.81;5020139;28;19983;-42
2022/09/21 01:37:18;;;;;;;;;;;;;;;10.16;100.00;102579.06;5020258;28;19917;-41
2022/09/21 01:39:46;;;;;;;;;;;;;;;10.05;100.00;102587.03;5020027;28;19943;-41
2022/09/21 01:42:12;;;;;;;;;;;;;;;10.03;100.00;102576.47;5020353;28;19917;-40
2022/09/21 01:44:39;;;;;;;;;;;;;;;10.06;100.00;102575.38;5020657;28;19913;-41
2022/09/21 01:47:06;;;;;;;;;;;;;;;10.07;100.00;102575.25;5019441;28;19913;-40
2022/09/21 01:49:35;;;;;;;;;;;;;;;10.08;100.00;102576.97;5019959;28;20121;-42
2022/09/21 01:52:10;;;;;;;;;;;;;;;10.09;100.00;102576.00;5020091;28;19996;-41
2022/09/21 01:54:38;;;;;;;;;;;;;;;10.12;100.00;102576.75;5019192;28;19913;-42
2022/09/21 01:57:10;;;;;;;;;;;;;;;10.11;100.00;102577.69;5020646;28;20335;-42
2022/09/21 01:59:42;;;;;;;;;;;;;;;10.09;100.00;102576.00;5020527;28;20140;-40
2022/09/21 02:02:10;;;;;;;;;;;;;;;10.10;100.00;102574.19;5013989;28;20411;-38
2022/09/21 02:04:37;;;;;;;;;;;;;;;10.09;100.00;102575.16;5019211;28;19960;-40
2022/09/21 02:07:03;;;;;;;;;;;;;;;10.01;100.00;102581.06;5019410;28;19921;-40
2022/09/21 02:09:28;;;;;;;;;;;;;;;9.92;100.00;102583.56;5019296;28;19925;-43
2022/09/21 02:11:54;;;;;;;;;;;;;;;9.84;100.00;102585.00;5020221;28;20011;-41
2022/09/21 02:14:21;;;;;;;;;;;;;;;9.83;100.00;102579.78;5019989;28;20994;-40
2022/09/21 02:16:55;;;;;;;;;;;;;;;9.81;100.00;102574.53;5020428;28;20022;-41
2022/09/21 02:19:56;;;;;;;;;;;;;;;9.82;100.00;102572.72;5019178;28;20452;-41
2022/09/21 02:22:21;;;;;;;;;;;;;;;9.85;100.00;102572.50;4996876;28;19917;-43
2022/09/21 02:24:50;;;;;;;;;;;;;;;9.84;100.00;102573.44;5014083;28;19967;-41
2022/09/21 02:27:37;;;;;;;;;;;;;;;9.83;100.00;102582.44;5020380;28;20016;-40
2022/09/21 02:30:08;;;;;;;;;;;;;;;9.76;100.00;102584.72;5018988;28;20051;-42
2022/09/21 02:32:34;;;;;;;;;;;;;;;9.60;100.00;102579.63;5019052;28;20192;-41
2022/09/21 02:35:16;;;;;;;;;;;;;;;9.48;100.00;102575.19;5018227;28;19971;-41
2022/09/21 02:37:47;;;;;;;;;;;;;;;9.40;100.00;102574.88;5019533;28;19980;-41
2022/09/21 02:40:29;;;;;;;;;;;;;;;9.36;100.00;102568.09;5018607;28;20020;-43
2022/09/21 02:43:04;;;;;;;;;;;;;;;9.38;100.00;102569.66;5020081;28;19952;-42
2022/09/21 02:45:33;;;;;;;;;;;;;;;9.42;100.00;102564.97;5019545;28;19925;-42
2022/09/21 02:48:02;;;;;;;;;;;;;;;9.42;100.00;102572.97;5019731;28;19972;-43
2022/09/21 02:50:34;;;;;;;;;;;;;;;9.37;100.00;102565.31;5015735;28;19922;-46
2022/09/21 02:53:00;;;;;;;;;;;;;;;9.30;100.00;102564.03;5018708;28;19928;-45
2022/09/21 02:55:26;;;;;;;;;;;;;;;9.24;100.00;102567.16;5019359;28;19924;-45
2022/09/21 02:57:53;;;;;;;;;;;;;;;9.21;100.00;102572.69;5019086;28;19913;-42
2022/09/21 03:00:18;;;;;;;;;;;;;;;9.15;100.00;102564.19;5019160;28;19917;-41
2022/09/21 03:02:43;;;;;;;;;;;;;;;9.14;100.00;102567.78;5019632;28;19971;-40
2022/09/21 03:05:09;;;;;;;;;;;;;;;9.13;100.00;102566.09;5018006;28;19921;-42
2022/09/21 03:07:35;;;;;;;;;;;;;;;9.14;100.00;102572.28;5018484;28;19919;-41
2022/09/21 03:10:00;;;;;;;;;;;;;;;9.13;100.00;102566.09;5018800;28;19968;-41
2022/09/21 03:12:25;;;;;;;;;;;;;;;9.11;100.00;102567.16;5019327;28;20446;-42
2022/09/21 03:14:51;;;;;;;;;;;;;;;9.10;100.00;102573.47;5018511;28;20359;-41
2022/09/21 03:17:17;;;;;;;;;;;;;;;9.06;100.00;102572.84;5019725;28;20390;-43
2022/09/21 03:19:42;;;;;;;;;;;;;;;9.03;100.00;102572.19;5018073;28;20003;-41
2022/09/21 03:22:08;;;;;;;;;;;;;;;9.00;100.00;102580.41;5018067;28;19913;-40
2022/09/21 03:24:45;;;;;;;;;;;;;;;8.97;100.00;102581.47;5019248;28;20008;-40
2022/09/21 03:27:11;;;;;;;;;;;;;;;8.91;100.00;102573.91;5018947;28;19913;-40
2022/09/21 03:29:36;;;;;;;;;;;;;;;8.87;100.00;102583.91;5018618;28;19921;-40
2022/09/21 03:32:02;;;;;;;;;;;;;;;8.83;100.00;102577.09;5019263;28;20287;-41
2022/09/21 03:34:27;;;;;;;;;;;;;;;8.82;100.00;102582.53;5018181;28;20052;-41
2022/09/21 03:36:53;;;;;;;;;;;;;;;8.80;100.00;102577.31;5017427;28;20008;-42
2022/09/21 03:39:18;;;;;;;;;;;;;;;8.80;100.00;102577.31;5019411;28;19923;-43
2022/09/21 03:41:43;;;;;;;;;;;;;;;8.80;100.00;102584.47;5018579;28;20079;-44
2022/09/21 03:44:08;;;;;;;;;;;;;;;8.76;100.00;102584.69;5019034;28;19921;-43
2022/09/21 03:46:34;;;;;;;;;;;;;;;8.74;100.00;102591.06;5017738;28;19976;-41
2022/09/21 03:48:59;;;;;;;;;;;;;;;8.72;100.00;102591.19;5017957;28;19924;-40
2022/09/21 03:51:25;;;;;;;;;;;;;;;8.72;100.00;102598.31;5017067;28;19924;-40
2022/09/21 03:53:50;;;;;;;;;;;;;;;8.71;100.00;102593.94;5018744;28;19989;-39
2022/09/21 03:56:15;;;;;;;;;;;;;;;8.70;100.00;102592.25;5018897;28;19913;-41
2022/09/21 03:58:40;;;;;;;;;;;;;;;8.70;100.00;102598.41;5019564;28;19917;-43
2022/09/21 04:01:05;;;;;;;;;;;;;;;8.65;100.00;102586.38;5018954;28;19917;-41
2022/09/21 04:03:31;;;;;;;;;;;;;;;8.65;100.00;102589.03;5019620;28;20351;-41
2022/09/21 04:05:56;;;;;;;;;;;;;;;8.62;100.00;102595.41;5015832;28;19913;-42
2022/09/21 04:08:22;;;;;;;;;;;;;;;8.61;100.00;102592.88;5018455;28;20023;-41
2022/09/21 04:10:47;;;;;;;;;;;;;;;8.58;100.00;102592.09;5018620;28;19991;-43
2022/09/21 04:13:12;;;;;;;;;;;;;;;8.56;100.00;102585.19;5018651;28;20015;-41
2022/09/21 04:15:37;;;;;;;;;;;;;;;8.52;100.00;102587.22;5018995;28;20283;-43
2022/09/21 04:18:03;;;;;;;;;;;;;;;8.54;100.00;102595.13;5020062;28;19913;-42
2022/09/21 04:20:28;;;;;;;;;;;;;;;8.50;100.00;102583.81;5019897;28;20280;-41
2022/09/21 04:22:53;;;;;;;;;;;;;;;8.49;100.00;102590.09;5022136;28;19917;-43
2022/09/21 04:25:19;;;;;;;;;;;;;;;8.46;100.00;102579.66;5022234;28;19933;-42
2022/09/21 04:27:44;;;;;;;;;;;;;;;8.44;100.00;102589.56;5022170;28;20427;-43
2022/09/21 04:30:11;;;;;;;;;;;;;;;8.41;100.00;102585.25;5020987;28;19929;-44
2022/09/21 04:32:36;;;;;;;;;;;;;;;8.40;100.00;102588.00;5014609;28;19967;-39
2022/09/21 04:35:01;;;;;;;;;;;;;;;8.37;100.00;102588.22;5019036;28;20013;-39
2022/09/21 04:37:26;;;;;;;;;;;;;;;8.32;100.00;102588.53;5019936;28;20055;-39
2022/09/21 04:39:51;;;;;;;;;;;;;;;8.29;100.00;102590.56;5021210;28;19928;-39
2022/09/21 04:42:17;;;;;;;;;;;;;;;8.23;100.00;102594.47;5022569;28;20298;-39
2022/09/21 04:44:42;;;;;;;;;;;;;;;8.19;100.00;102590.31;5021990;28;19913;-39
2022/09/21 04:47:07;;;;;;;;;;;;;;;8.17;100.00;102598.41;5021397;28;19920;-39
2022/09/21 04:49:33;;;;;;;;;;;;;;;8.15;100.00;102595.00;5018472;28;19921;-39
2022/09/21 04:51:58;;;;;;;;;;;;;;;8.14;100.00;102603.06;5018299;28;19929;-38
2022/09/21 04:54:23;;;;;;;;;;;;;;;8.13;100.00;102598.69;5021689;28;19944;-39
2022/09/21 04:56:48;;;;;;;;;;;;;;;8.10;100.00;102594.44;5022125;28;19913;-39
2022/09/21 04:59:14;;;;;;;;;;;;;;;8.10;100.00;102594.44;5021165;28;20011;-38
2022/09/21 05:01:39;;;;;;;;;;;;;;;8.05;100.00;102607.19;5022065;28;19917;-39
2022/09/21 05:04:04;;;;;;;;;;;;;;;8.02;100.00;102602.06;5020739;28;19972;-39
2022/09/21 05:06:30;;;;;;;;;;;;;;;8.00;100.00;102607.50;5019974;28;19925;-39
2022/09/21 05:11:39;;;;;;;;;;;;;;;8.02;100.00;102610.91;5021987;28;19924;-39
2022/09/21 05:14:04;;;;;;;;;;;;;;;8.04;100.00;102608.13;5021213;28;20167;-39
2022/09/21 05:16:30;;;;;;;;;;;;;;;8.01;100.00;102609.22;5021099;28;19933;-39
2022/09/21 05:18:55;;;;;;;;;;;;;;;7.99;100.00;102610.25;5020625;28;19914;-39
2022/09/21 05:21:20;;;;;;;;;;;;;;;7.97;100.00;102609.50;5018491;28;19921;-39
2022/09/21 05:23:45;;;;;;;;;;;;;;;7.95;100.00;102611.41;5021676;28;19913;-40
2022/09/21 05:26:10;;;;;;;;;;;;;;;7.93;100.00;102614.19;5019446;28;20031;-39
2022/09/21 05:28:36;;;;;;;;;;;;;;;7.92;100.00;102614.28;5016058;28;20043;-39
2022/09/21 05:31:03;;;;;;;;;;;;;;;7.89;100.00;102618.00;5001470;28;19926;-39
2022/09/21 05:33:29;;;;;;;;;;;;;;;7.89;100.00;102619.78;5003473;28;19918;-39
2022/09/21 05:36:13;;;;;;;;;;;;;;;7.87;100.00;102627.03;5015499;28;19921;-39
2022/09/21 05:38:38;;;;;;;;;;;;;;;7.87;100.00;102627.88;5009172;28;19926;-39
2022/09/21 05:41:04;;;;;;;;;;;;;;;7.87;100.00;102633.19;5012519;28;20187;-39
2022/09/21 05:43:29;;;;;;;;;;;;;;;7.88;100.00;102631.41;5028539;28;20088;-39
2022/09/21 05:46:01;;;;;;;;;;;;;;;7.88;100.00;102634.91;5004961;28;20330;-39
2022/09/21 05:48:28;;;;;;;;;;;;;;;7.89;100.00;102639.28;5002412;28;20380;-39
2022/09/21 05:50:56;;;;;;;;;;;;;;;7.90;100.00;102634.81;5012751;28;19925;-39
2022/09/21 05:53:44;;;;;;;;;;;;;;;7.90;100.00;102633.00;5025282;28;19976;-39
2022/09/21 05:56:17;;;;;;;;;;;;;;;7.92;100.00;102636.41;5020383;28;19928;-38
2022/09/21 05:58:49;;;;;;;;;;;;;;;7.94;100.00;102642.50;5017047;28;19956;-38
2022/09/21 06:01:41;;;;;;;;;;;;;;;7.97;100.00;102644.09;5016597;28;19919;-38
2022/09/21 06:04:09;;;;;;;;;;;;;;;7.98;100.00;102635.16;5020640;28;19920;-38
2022/09/21 06:06:34;;;;;;;;;;;;;;;8.01;100.00;102634.94;5000296;28;19985;-39
2022/09/21 06:08:59;;;;;;;;;;;;;;;8.01;100.00;102643.81;5009413;28;20007;-39
2022/09/21 06:11:25;;;;;;;;;;;;;;;8.03;100.00;102643.72;5013804;28;19917;-38
2022/09/21 06:13:50;;;;;;;;;;;;;;;8.02;100.00;102634.84;5021794;28;20279;-39
2022/09/21 06:16:15;;;;;;;;;;;;;;;8.06;100.00;102642.63;5015846;28;20008;-38
2022/09/21 06:18:41;;;;;;;;;;;;;;;8.09;100.00;102650.41;5015382;28;19991;-39
2022/09/21 06:21:07;;;;;;;;;;;;;;;8.11;100.00;102646.72;5013093;28;20020;-39
2022/09/21 06:23:32;;;;;;;;;;;;;;;8.13;100.00;102650.13;5017736;28;19921;-39
2022/09/21 06:25:57;;;;;;;;;;;;;;;8.15;100.00;102652.69;5013151;28;20028;-38
2022/09/21 06:28:22;;;;;;;;;;;;;;;8.18;100.00;102650.69;5009561;28;19920;-39
2022/09/21 06:30:51;;;;;;;;;;;;;;;8.21;100.00;102653.16;4998717;28;19914;-39
2022/09/21 06:33:20;;;;;;;;;;;;;;;8.26;100.00;102651.97;5011773;28;20368;-39
2022/09/21 06:35:50;;;;;;;;;;;;;;;8.31;100.00;102653.38;5010414;28;19917;-38
2022/09/21 06:38:15;;;;;;;;;;;;;;;8.33;100.00;102648.81;5018515;28;19931;-39
2022/09/21 06:40:41;;;;;;;;;;;;;;;8.38;100.00;102660.03;5014548;28;19921;-39
2022/09/21 06:43:06;;;;;;;;;;;;;;;8.44;100.00;102653.44;5005324;28;19921;-39
2022/09/21 06:45:31;;;;;;;;;;;;;;;8.50;100.00;102661.03;5017621;28;19928;-39
2022/09/21 06:47:57;;;;;;;;;;;;;;;8.55;100.00;102653.59;5018037;28;19945;-39
2022/09/21 06:50:22;;;;;;;;;;;;;;;8.63;100.00;102655.72;5011811;28;19925;-38
2022/09/21 06:52:47;;;;;;;;;;;;;;;8.67;100.00;102656.38;4999479;28;19948;-39
2022/09/21 06:55:13;;;;;;;;;;;;;;;8.74;100.00;102655.88;5010434;28;20352;-39
2022/09/21 06:57:38;;;;;;;;;;;;;;;8.81;100.00;102652.75;5019407;28;19963;-39
2022/09/21 07:00:05;;;;;;;;;;;;;;;8.90;100.00;102658.31;5018703;28;19928;-40
2022/09/21 07:02:30;;;;;;;;;;;;;;;9.01;100.00;102665.56;5013781;28;19936;-39
2022/09/21 07:04:57;;;;;;;;;;;;;;;9.12;100.00;102660.34;5007513;28;20186;-39
2022/09/21 07:07:22;;;;;;;;;;;;;;;9.28;100.00;102656.59;5000799;28;20197;-40
2022/09/21 07:09:47;;;;;;;;;;;;;;;9.40;100.00;102657.56;4998606;28;19922;-40
2022/09/21 07:12:14;;;;;;;;;;;;;;;9.57;100.00;102661.69;4998862;28;20335;-40
2022/09/21 07:14:39;;;;;;;;;;;;;;;9.74;100.00;102660.47;5015638;28;19917;-40
2022/09/21 07:17:05;;;;;;;;;;;;;;;9.90;100.00;102659.25;5008877;28;20020;-39
2022/09/21 07:19:30;;;;;;;;;;;;;;;10.08;100.00;102653.53;4998350;28;19921;-39
2022/09/21 07:21:55;;;;;;;;;;;;;;;10.27;100.00;102658.38;4997815;28;19964;-39
2022/09/21 07:24:20;;;;;;;;;;;;;;;10.45;100.00;102662.38;4998560;28;20023;-39
2022/09/21 07:26:46;;;;;;;;;;;;;;;10.64;100.00;102655.59;5005910;28;19952;-39
2022/09/21 07:29:11;;;;;;;;;;;;;;;10.85;100.00;102665.66;5009371;28;20388;-40
2022/09/21 07:31:36;;;;;;;;;;;;;;;11.02;100.00;102666.03;5001606;28;20016;-39
2022/09/21 07:34:02;;;;;;;;;;;;;;;11.20;100.00;102662.88;4999718;28;19960;-39
2022/09/21 07:36:27;;;;;;;;;;;;;;;11.34;100.00;102651.13;4996245;28;19960;-40
2022/09/21 07:38:52;;;;;;;;;;;;;;;11.48;100.00;102660.72;4998824;28;20551;-39
2022/09/21 07:41:18;;;;;;;;;;;;;;;11.64;100.00;102661.16;5005001;28;19913;-39
2022/09/21 07:43:43;;;;;;;;;;;;;;;11.80;100.00;102657.28;4998901;28;19920;-39
2022/09/21 07:46:09;;;;;;;;;;;;;;;11.95;100.00;102661.41;4998139;28;19925;-38
2022/09/21 07:48:35;;;;;;;;;;;;;;;12.09;100.00;102660.28;4998932;28;20372;-39
2022/09/21 07:51:04;;;;;;;;;;;;;;;12.23;100.00;102665.31;5003625;28;19924;-39
2022/09/21 07:53:30;;;;;;;;;;;;;;;12.38;100.00;102657.84;5002130;28;20048;-39
2022/09/21 07:55:59;;;;;;;;;;;;;;;12.51;100.00;102655.00;5019545;28;19916;-39
2022/09/21 08:01:08;;;;;;;;;;;;;;;12.77;100.00;102651.94;5021767;28;19916;-39
2022/09/21 08:03:33;;;;;;;;;;;;;;;12.91;100.00;102656.09;5020640;28;19925;-39
2022/09/21 08:05:59;;;;;;;;;;;;;;;13.03;100.00;102657.72;5019028;28;19917;-41
2022/09/21 08:08:24;;;;;;;;;;;;;;;13.12;100.00;102650.72;5022178;28;20364;-39
2022/09/21 08:10:51;;;;;;;;;;;;;;;13.25;100.00;102651.34;5021542;28;19987;-40
2022/09/21 08:13:17;;;;;;;;;;;;;;;13.39;100.00;102647.47;5022607;28;19913;-40
2022/09/21 08:15:42;;;;;;;;;;;;;;;13.52;100.00;102652.63;5021915;28;19920;-40
2022/09/21 08:18:07;;;;;;;;;;;;;;;13.61;100.00;102641.03;5021584;28;19913;-42
2022/09/21 08:20:33;;;;;;;;;;;;;;;13.78;100.00;102656.50;5018777;28;19913;-40
2022/09/21 08:22:58;;;;;;;;;;;;;;;13.91;100.00;102661.63;5021930;28;20372;-41
2022/09/21 08:25:24;;;;;;;;;;;;;;;13.97;100.00;102658.38;5021415;28;20387;-41
2022/09/21 08:27:49;;;;;;;;;;;;;;;14.05;100.00;102656.84;5021811;28;20324;-39
2022/09/21 08:30:14;;;;;;;;;;;;;;;14.13;100.00;102659.69;5021668;28;19982;-39
2022/09/21 08:32:39;;;;;;;;;;;;;;;14.22;100.00;102669.56;5022276;28;20570;-42
2022/09/21 08:35:05;;;;;;;;;;;;;;;14.31;100.00;102662.53;5018071;28;20252;-41
2022/09/21 08:37:32;;;;;;;;;;;;;;;14.41;100.00;102668.75;5022543;28;20593;-40
2022/09/21 08:39:57;;;;;;;;;;;;;;;14.58;100.00;102672.56;5020847;28;20008;-41
2022/09/21 08:42:22;;;;;;;;;;;;;;;14.69;100.00;102667.03;5010814;28;20016;-42
2022/09/21 08:44:51;;;;;;;;;;;;;;;14.81;100.00;102670.44;5021191;28;20435;-41
2022/09/21 08:47:23;;;;;;;;;;;;;;;14.86;100.00;102661.94;5021417;28;19920;-43
2022/09/21 08:49:57;;;;;;;;;;;;;;;14.87;98.64;102683.31;5018755;28;20738;-40
2022/09/21 08:52:23;;;;;;;;;;;;;;;14.89;100.00;102673.25;5021881;28;20457;-42
2022/09/21 08:55:07;;;;;;;;;;;;;;;14.92;98.51;102674.81;5021077;28;19940;-40
2022/09/21 08:57:33;;;;;;;;;;;;;;;15.04;100.00;102678.19;5021066;28;20303;-40
2022/09/21 08:59:59;;;;;;;;;;;;;;;15.11;100.00;102673.91;5020989;28;19917;-44
2022/09/21 09:02:24;;;;;;;;;;;;;;;15.25;100.00;102680.66;5021256;28;20012;-42
2022/09/21 09:05:02;;;;;;;;;;;;;;;15.40;100.00;102686.44;5018046;28;20340;-42
2022/09/21 09:07:41;;;;;;;;;;;;;;;15.54;100.00;102680.53;5021161;28;19931;-41
2022/09/21 09:10:28;;;;;;;;;;;;;;;15.59;96.30;102683.63;5020290;28;19920;-41
2022/09/21 09:13:12;;;;;;;;;;;;;;;15.63;96.41;102682.34;5020934;28;19930;-39
2022/09/21 09:15:43;;;;;;;;;;;;;;;15.65;94.56;102688.44;5020167;28;19913;-40
2022/09/21 09:18:17;;;;;;;;;;;;;;;15.68;98.53;102687.25;5020601;28;19917;-38
2022/09/21 09:20:46;;;;;;;;;;;;;;;15.81;95.49;102689.66;5018318;28;20133;-39
2022/09/21 09:23:23;;;;;;;;;;;;;;;15.89;94.85;102689.75;5020220;28;19940;-40
2022/09/21 09:25:50;;;;;;;;;;;;;;;15.98;92.88;102683.44;5020406;28;20008;-40
2022/09/21 09:28:37;;;;;;;;;;;;;;;16.15;89.88;102691.72;5020433;28;19913;-40
2022/09/21 09:31:10;;;;;;;;;;;;;;;16.28;94.28;102689.50;5011869;28;19972;-40
2022/09/21 09:33:45;;;;;;;;;;;;;;;16.39;86.81;102696.50;5006376;28;20029;-42
2022/09/21 09:36:11;;;;;;;;;;;;;;;16.53;91.57;102692.41;5017942;28;19914;-40
2022/09/21 09:38:56;;;;;;;;;;;;;;;16.63;91.84;102687.75;5020798;28;20283;-40
2022/09/21 09:41:24;;;;;;;;;;;;;;;16.76;87.87;102682.81;5019523;28;19956;-42
2022/09/21 09:44:07;;;;;;;;;;;;;;;16.76;82.43;102680.09;5006796;28;19921;-40
2022/09/21 09:46:35;;;;;;;;;;;;;;;16.69;80.41;102687.16;5020482;28;20220;-38
2022/09/21 09:49:12;;;;;;;;;;;;;;;16.78;89.36;102685.34;5018724;28;19928;-39
2022/09/21 09:51:39;;;;;;;;;;;;;;;17.00;88.31;102689.44;5018738;28;20119;-40
2022/09/21 09:54:11;;;;;;;;;;;;;;;17.15;85.94;102690.53;5019499;28;19928;-40
2022/09/21 09:56:37;;;;;;;;;;;;;;;17.27;83.37;102687.56;5020778;28;19917;-39
2022/09/21 09:59:07;;;;;;;;;;;;;;;17.25;76.96;102689.59;5020404;28;20372;-41
2022/09/21 10:01:37;;;;;;;;;;;;;;;17.20;80.01;102689.22;5020294;28;20422;-42
2022/09/21 10:04:07;;;;;;;;;;;;;;;17.41;77.03;102691.50;5019477;28;19948;-40
2022/09/21 10:06:33;;;;;;;;;;;;;;;17.64;78.29;102694.50;5018884;28;19913;-39
2022/09/21 10:08:58;;;;;;;;;;;;;;;17.73;71.37;102703.47;5018185;28;19983;-40
2022/09/21 10:11:32;;;;;;;;;;;;;;;17.69;76.67;102686.75;5019683;28;19913;-40
2022/09/21 10:14:19;;;;;;;;;;;;;;;17.92;77.73;102691.59;5018620;28;21775;-40
2022/09/21 10:16:45;;;;;;;;;;;;;;;18.24;75.68;102686.25;5018686;28;19985;-41
2022/09/21 10:19:14;;;;;;;;;;;;;;;18.25;74.90;102681.69;5011999;28;19921;-42
2022/09/21 10:21:42;;;;;;;;;;;;;;;17.98;68.91;102680.97;5006454;28;20161;-41
2022/09/21 10:24:14;;;;;;;;;;;;;;;17.64;72.49;102686.41;5003879;28;20100;-45
2022/09/21 10:26:42;;;;;;;;;;;;;;;17.36;75.93;102678.50;5001429;28;19979;-42
2022/09/21 10:29:26;;;;;;;;;;;;;;;17.29;76.92;102680.16;4999705;28;20463;-42
2022/09/21 10:31:56;;;;;;;;;;;;;;;17.17;76.21;102676.88;4999119;28;19963;-42
2022/09/21 10:34:21;;;;;;;;;;;;;;;17.07;75.05;102678.84;4996436;28;20257;-43
2022/09/21 10:36:51;;;;;;;;;;;;;;;16.90;79.21;102673.31;4999500;28;19928;-42
2022/09/21 10:39:27;;;;;;;;;;;;;;;16.88;81.44;102669.09;4998317;28;19935;-41
2022/09/21 10:41:52;;;;;;;;;;;;;;;16.96;80.85;102670.00;4999566;28;20012;-43
2022/09/21 10:44:19;;;;;;;;;;;;;;;17.05;76.09;102667.34;4999215;28;20405;-42
2022/09/21 10:46:46;;;;;;;;;;;;;;;17.06;74.13;102675.31;4998530;28;19925;-44
2022/09/21 10:49:18;;;;;;;;;;;;;;;17.08;77.81;102665.19;5005698;28;20366;-45
2022/09/21 10:51:44;;;;;;;;;;;;;;;17.14;76.84;102667.25;5000564;28;19917;-45
2022/09/21 10:54:10;;;;;;;;;;;;;;;17.18;81.25;102659.69;5002125;28;19956;-43
2022/09/21 10:56:36;;;;;;;;;;;;;;;17.24;81.73;102660.88;5018637;28;20062;-43
2022/09/21 10:59:23;;;;;;;;;;;;;;;17.21;78.29;102656.66;5018379;28;19929;-41
2022/09/21 11:01:49;;;;;;;;;;;;;;;17.13;78.61;102657.44;5019099;28;19956;-43
2022/09/21 11:04:19;;;;;;;;;;;;;;;17.04;75.42;102669.22;5016872;28;19925;-42
2022/09/21 11:06:47;;;;;;;;;;;;;;;16.94;79.83;102663.09;5018902;28;20089;-42
2022/09/21 11:09:22;;;;;;;;;;;;;;;16.89;80.40;102668.94;5017112;28;20650;-41
2022/09/21 11:11:51;;;;;;;;;;;;;;;16.93;81.85;102661.38;5012889;28;19917;-42
2022/09/21 11:14:17;;;;;;;;;;;;;;;17.19;81.48;102665.91;5018208;28;19917;-46
2022/09/21 11:16:50;;;;;;;;;;;;;;;17.37;79.93;102657.75;5018962;28;19940;-42
2022/09/21 11:19:37;;;;;;;;;;;;;;;17.57;73.36;102661.88;5015864;28;19913;-42
2022/09/21 11:22:21;;;;;;;;;;;;;;;17.91;74.05;102660.19;5018482;28;19920;-45
2022/09/21 11:24:52;;;;;;;;;;;;;;;18.25;65.91;102658.19;5018308;28;19917;-42
2022/09/21 11:27:27;;;;;;;;;;;;;;;18.20;68.21;102654.31;5020399;28;19913;-45
2022/09/21 11:29:57;;;;;;;;;;;;;;;18.13;65.02;102661.41;5021558;28;19917;-46
2022/09/21 11:32:35;;;;;;;;;;;;;;;18.22;72.69;102660.38;5022821;28;19913;-44
2022/09/21 11:35:17;;;;;;;;;;;;;;;18.39;61.04;102653.97;5019493;28;20294;-42
2022/09/21 11:37:42;;;;;;;;;;;;;;;18.48;66.75;102648.56;5022882;28;20156;-40
2022/09/21 11:40:20;;;;;;;;;;;;;;;18.68;60.81;102649.88;5021961;28;19913;-42
2022/09/21 11:43:05;;;;;;;;;;;;;;;18.81;63.42;102646.69;5014640;28;20064;-43
2022/09/21 11:45:46;;;;;;;;;;;;;;;18.89;59.42;102646.69;5022677;28;19967;-45
2022/09/21 11:48:15;;;;;;;;;;;;;;;18.98;58.63;102644.81;5021546;28;20395;-42
2022/09/21 11:50:57;;;;;;;;;;;;;;;19.14;66.59;102644.75;5019773;28;20276;-41
2022/09/21 11:53:26;;;;;;;;;;;;;;;19.30;63.87;102638.44;5012078;28;20095;-44
2022/09/21 11:56:10;;;;;;;;;;;;;;;19.28;65.27;102634.19;5015155;28;19925;-43
2022/09/21 11:58:49;;;;;;;;;;;;;;;19.42;64.88;102633.50;5002668;28;20023;-42
2022/09/21 12:01:26;;;;;;;;;;;;;;;19.62;66.87;102633.03;5002211;28;20292;-43
2022/09/21 12:04:02;;;;;;;;;;;;;;;19.64;62.05;102633.72;5001467;28;19980;-43
2022/09/21 12:06:30;;;;;;;;;;;;;;;19.68;65.07;102632.34;5000272;28;20296;-41
2022/09/21 12:09:02;;;;;;;;;;;;;;;19.90;64.55;102630.72;5002009;28;20377;-45
2022/09/21 12:11:47;;;;;;;;;;;;;;;20.19;67.24;102624.56;5002284;28;20076;-42
2022/09/21 12:14:21;;;;;;;;;;;;;;;20.42;66.64;102629.97;5007903;28;19929;-43
2022/09/21 12:16:56;;;;;;;;;;;;;;;20.48;60.81;102625.69;5002030;28;20160;-44
2022/09/21 12:19:40;;;;;;;;;;;;;;;20.40;64.89;102620.31;5000245;28;19917;-43
2022/09/21 12:22:08;;;;;;;;;;;;;;;20.64;62.61;102619.31;5001565;28;20357;-46
2022/09/21 12:24:43;;;;;;;;;;;;;;;20.93;62.99;102615.75;5007901;28;19917;-41
2022/09/21 12:27:20;;;;;;;;;;;;;;;21.25;49.93;102616.41;5002132;28;19914;-41
2022/09/21 12:29:49;;;;;;;;;;;;;;;21.52;57.92;102605.88;5001606;28;19972;-47
2022/09/21 12:32:24;;;;;;;;;;;;;;;21.95;48.09;102606.78;5001991;28;19917;-44
2022/09/21 12:34:59;;;;;;;;;;;;;;;22.41;58.12;102604.72;4998914;28;20482;-44
2022/09/21 12:37:30;;;;;;;;;;;;;;;23.31;53.59;102604.88;5002232;28;20261;-41
2022/09/21 12:40:14;;;;;;;;;;;;;;;23.94;54.58;102599.19;5000255;28;19917;-42
2022/09/21 12:42:43;;;;;;;;;;;;;;;24.95;55.77;102596.19;5001171;28;19933;-45
2022/09/21 12:45:11;;;;;;;;;;;;;;;25.80;52.32;102600.66;5007315;28;19925;-42
2022/09/21 12:47:42;;;;;;;;;;;;;;;26.40;47.05;102592.00;5001754;28;20007;-46